createdAt,value
2017-12-02T00:00:40.535Z,91.90
2017-12-02T00:01:40.549Z,86.90
2017-12-02T00:02:40.563Z,93.40
2017-12-02T00:03:40.574Z,89.80
2017-12-02T00:04:40.594Z,87.50
2017-12-02T00:05:40.603Z,88.70
2017-12-02T00:06:40.617Z,85.50
2017-12-02T00:07:40.628Z,88.60
2017-12-02T00:08:40.641Z,92.50
2017-12-02T00:09:40.658Z,98.50
2017-12-02T00:10:40.667Z,105.50
2017-12-02T00:11:40.681Z,97.60
2017-12-02T00:12:40.695Z,104.60
2017-12-02T00:13:40.706Z,102.90
2017-12-02T00:14:40.721Z,113.20
2017-12-02T00:15:40.755Z,116.60
2017-12-02T00:16:40.746Z,104.40
2017-12-02T00:17:40.761Z,96.10
2017-12-02T00:18:40.782Z,114.50
2017-12-02T00:19:40.787Z,106.10
2017-12-02T00:20:40.851Z,99.10
2017-12-02T00:21:40.813Z,104.10
2017-12-02T00:22:40.830Z,118.40
2017-12-02T00:23:40.840Z,115.50
2017-12-02T00:24:40.857Z,114.50
2017-12-02T00:25:40.868Z,96.90
2017-12-02T00:26:40.880Z,109.40
2017-12-02T00:27:40.892Z,107.70
2017-12-02T00:28:40.906Z,108.00
2017-12-02T00:29:40.923Z,100.90
2017-12-02T00:30:40.939Z,99.80
2017-12-02T00:31:40.946Z,109.30
2017-12-02T00:32:40.961Z,103.10
2017-12-02T00:33:40.973Z,110.70
2017-12-02T00:34:40.988Z,97.20
2017-12-02T00:35:41.000Z,95.60
2017-12-02T00:36:41.015Z,105.80
2017-12-02T00:37:41.032Z,103.20
2017-12-02T00:38:41.045Z,97.50
2017-12-02T00:39:41.058Z,97.10
2017-12-02T00:40:41.070Z,95.70
2017-12-02T00:41:41.082Z,103.20
2017-12-02T00:42:41.099Z,120.50
2017-12-02T00:43:41.108Z,128.70
2017-12-02T00:44:41.128Z,119.20
2017-12-02T00:45:41.137Z,102.90
2017-12-02T00:46:41.153Z,111.10
2017-12-02T00:47:41.163Z,102.10
2017-12-02T00:48:41.176Z,112.00
2017-12-02T00:49:41.192Z,123.50
2017-12-02T00:50:41.201Z,101.70
2017-12-02T00:51:41.217Z,98.40
2017-12-02T00:52:41.234Z,94.90
2017-12-02T00:53:41.244Z,96.20
2017-12-02T00:54:41.257Z,118.20
2017-12-02T00:55:41.270Z,101.20
2017-12-02T00:56:41.288Z,99.80
2017-12-02T00:57:41.301Z,100.80
2017-12-02T00:58:41.363Z,108.80
2017-12-02T00:59:41.324Z,116.30
2017-12-02T01:00:41.342Z,100.30
2017-12-02T01:01:41.352Z,111.10
2017-12-02T01:02:41.365Z,104.30
2017-12-02T01:03:41.377Z,108.30
2017-12-02T01:04:41.390Z,113.60
2017-12-02T01:05:41.404Z,102.60
2017-12-02T01:06:41.417Z,103.60
2017-12-02T01:07:41.433Z,103.60
2017-12-02T01:08:41.443Z,100.10
2017-12-02T01:09:41.460Z,99.20
2017-12-02T01:10:41.475Z,107.30
2017-12-02T01:11:41.488Z,98.60
2017-12-02T01:12:41.500Z,95.90
2017-12-02T01:13:41.517Z,105.00
2017-12-02T01:14:41.527Z,101.80
2017-12-02T01:15:41.539Z,122.60
2017-12-02T01:16:41.553Z,122.40
2017-12-02T01:17:41.602Z,109.50
2017-12-02T01:18:41.581Z,119.50
2017-12-02T01:19:42.597Z,100.70
2017-12-02T01:20:41.609Z,120.30
2017-12-02T01:21:41.621Z,121.40
2017-12-02T01:22:41.637Z,111.20
2017-12-02T01:23:41.649Z,128.60
2017-12-02T01:24:41.660Z,107.50
2017-12-02T01:25:41.674Z,107.90
2017-12-02T01:26:41.688Z,109.20
2017-12-02T01:27:41.701Z,97.80
2017-12-02T01:28:41.715Z,114.40
2017-12-02T01:29:41.727Z,129.70
2017-12-02T01:30:41.741Z,115.90
2017-12-02T01:31:41.756Z,99.20
2017-12-02T01:32:41.769Z,92.50
2017-12-02T01:33:41.782Z,98.40
2017-12-02T01:34:41.797Z,109.50
2017-12-02T01:35:41.815Z,118.70
2017-12-02T01:36:41.824Z,98.30
2017-12-02T01:37:41.836Z,106.00
2017-12-02T01:38:41.849Z,106.30
2017-12-02T01:39:41.860Z,96.70
2017-12-02T01:40:41.877Z,98.00
2017-12-02T01:41:41.890Z,100.70
2017-12-02T01:42:41.909Z,104.00
2017-12-02T01:43:41.916Z,103.60
2017-12-02T01:44:41.931Z,91.30
2017-12-02T01:45:41.947Z,93.20
2017-12-02T01:46:41.962Z,92.30
2017-12-02T01:47:41.971Z,96.20
2017-12-02T01:48:41.985Z,96.40
2017-12-02T01:49:41.999Z,91.90
2017-12-02T01:50:42.012Z,89.50
2017-12-02T01:51:42.026Z,89.30
2017-12-02T01:52:42.039Z,88.10
2017-12-02T01:53:42.060Z,86.30
2017-12-02T01:54:42.068Z,90.90
2017-12-02T01:55:42.130Z,81.80
2017-12-02T01:56:42.096Z,84.40
2017-12-02T01:57:42.112Z,85.20
2017-12-02T01:58:42.123Z,91.70
2017-12-02T01:59:42.133Z,85.20
2017-12-02T02:00:42.150Z,84.20
2017-12-02T02:01:42.166Z,81.80
2017-12-02T02:02:42.180Z,88.60
2017-12-02T02:03:42.194Z,96.30
2017-12-02T02:04:42.206Z,99.00
2017-12-02T02:05:42.215Z,96.70
2017-12-02T02:06:42.229Z,88.90
2017-12-02T02:07:42.243Z,82.20
2017-12-02T02:08:42.257Z,96.70
2017-12-02T02:09:42.275Z,94.60
2017-12-02T02:10:42.285Z,93.70
2017-12-02T02:11:42.296Z,97.10
2017-12-02T02:12:42.313Z,94.60
2017-12-02T02:13:42.327Z,87.80
2017-12-02T02:14:42.351Z,83.50
2017-12-02T02:15:42.357Z,89.10
2017-12-02T02:16:42.367Z,87.80
2017-12-02T02:17:42.378Z,81.50
2017-12-02T02:18:42.394Z,77.00
2017-12-02T02:19:42.415Z,83.70
2017-12-02T02:20:42.420Z,84.30
2017-12-02T02:21:42.436Z,83.80
2017-12-02T02:22:42.450Z,86.40
2017-12-02T02:23:42.463Z,84.30
2017-12-02T02:24:42.477Z,82.60
2017-12-02T02:25:42.493Z,80.80
2017-12-02T02:26:42.502Z,82.50
2017-12-02T02:27:42.517Z,75.50
2017-12-02T02:28:42.535Z,82.50
2017-12-02T02:29:42.548Z,84.30
2017-12-02T02:30:42.561Z,75.20
2017-12-02T02:31:42.576Z,71.90
2017-12-02T02:32:42.585Z,82.10
2017-12-02T02:33:42.616Z,77.90
2017-12-02T02:34:42.622Z,82.50
2017-12-02T02:35:42.627Z,84.10
2017-12-02T02:36:42.640Z,79.30
2017-12-02T02:37:42.667Z,78.40
2017-12-02T02:38:42.670Z,81.30
2017-12-02T02:39:42.700Z,86.40
2017-12-02T02:40:42.695Z,84.00
2017-12-02T02:41:42.717Z,80.00
2017-12-02T02:42:42.724Z,82.30
2017-12-02T02:43:42.735Z,87.80
2017-12-02T02:44:42.751Z,87.80
2017-12-02T02:45:42.767Z,76.80
2017-12-02T02:46:42.778Z,79.20
2017-12-02T02:47:42.789Z,79.80
2017-12-02T02:48:42.806Z,84.10
2017-12-02T02:49:42.819Z,85.60
2017-12-02T02:50:42.834Z,77.60
2017-12-02T02:51:42.845Z,82.50
2017-12-02T02:52:42.860Z,77.60
2017-12-02T02:53:42.871Z,78.60
2017-12-02T02:54:42.887Z,76.30
2017-12-02T02:55:42.903Z,70.10
2017-12-02T02:56:42.915Z,85.50
2017-12-02T02:57:42.928Z,73.50
2017-12-02T02:58:42.942Z,80.00
2017-12-02T02:59:42.954Z,76.30
2017-12-02T03:00:42.973Z,73.60
2017-12-02T03:01:42.986Z,79.90
2017-12-02T03:02:43.000Z,73.50
2017-12-02T03:03:43.010Z,82.30
2017-12-02T03:04:43.025Z,79.50
2017-12-02T03:05:43.047Z,79.90
2017-12-02T03:06:43.052Z,73.60
2017-12-02T03:07:43.092Z,78.30
2017-12-02T03:08:43.078Z,82.20
2017-12-02T03:09:43.092Z,72.50
2017-12-02T03:10:43.109Z,72.60
2017-12-02T03:11:43.123Z,81.80
2017-12-02T03:12:43.136Z,75.00
2017-12-02T03:13:43.149Z,81.60
2017-12-02T03:14:43.163Z,76.40
2017-12-02T03:15:43.175Z,73.00
2017-12-02T03:16:43.191Z,78.40
2017-12-02T03:17:43.205Z,79.10
2017-12-02T03:18:43.217Z,82.90
2017-12-02T03:19:43.280Z,76.90
2017-12-02T03:20:43.246Z,89.00
2017-12-02T03:21:43.261Z,81.20
2017-12-02T03:22:43.271Z,90.20
2017-12-02T03:23:43.287Z,91.30
2017-12-02T03:24:43.301Z,91.70
2017-12-02T03:25:43.313Z,100.00
2017-12-02T03:26:43.329Z,93.40
2017-12-02T03:27:43.341Z,86.00
2017-12-02T03:28:43.870Z,92.20
2017-12-02T03:29:43.371Z,88.50
2017-12-02T03:30:43.385Z,88.10
2017-12-02T03:31:43.396Z,89.80
2017-12-02T03:32:43.409Z,88.70
2017-12-02T03:33:43.424Z,84.70
2017-12-02T03:34:43.439Z,92.00
2017-12-02T03:35:43.451Z,86.30
2017-12-02T03:36:43.472Z,96.00
2017-12-02T03:37:43.481Z,89.00
2017-12-02T03:38:43.493Z,116.50
2017-12-02T03:39:43.508Z,110.80
2017-12-02T03:40:43.521Z,113.20
2017-12-02T03:41:43.534Z,115.70
2017-12-02T03:42:43.551Z,135.80
2017-12-02T03:43:43.564Z,120.90
2017-12-02T03:44:43.577Z,112.60
2017-12-02T03:45:43.587Z,109.00
2017-12-02T03:46:43.603Z,128.90
2017-12-02T03:47:43.616Z,126.80
2017-12-02T03:48:43.630Z,114.10
2017-12-02T03:49:43.641Z,125.50
2017-12-02T03:50:43.655Z,117.30
2017-12-02T03:51:43.671Z,123.50
2017-12-02T03:52:43.681Z,115.50
2017-12-02T03:53:43.699Z,118.50
2017-12-02T03:54:43.711Z,102.00
2017-12-02T03:55:43.725Z,101.50
2017-12-02T03:56:43.796Z,102.80
2017-12-02T03:57:43.752Z,94.90
2017-12-02T03:58:43.765Z,91.30
2017-12-02T03:59:43.834Z,94.80
2017-12-02T04:00:43.796Z,111.60
2017-12-02T04:01:43.806Z,108.10
2017-12-02T04:02:43.874Z,95.90
2017-12-02T04:03:43.992Z,99.20
2017-12-02T04:04:43.850Z,85.80
2017-12-02T04:05:43.861Z,69.70
2017-12-02T04:06:43.875Z,61.00
2017-12-02T04:07:43.889Z,60.20
2017-12-02T04:08:43.902Z,66.70
2017-12-02T04:09:43.917Z,58.80
2017-12-02T04:10:43.929Z,55.40
2017-12-02T04:11:43.943Z,59.80
2017-12-02T04:12:43.956Z,68.10
2017-12-02T04:13:43.968Z,61.90
2017-12-02T04:14:43.983Z,57.70
2017-12-02T04:15:43.997Z,61.40
2017-12-02T04:16:44.009Z,58.90
2017-12-02T04:17:44.023Z,65.40
2017-12-02T04:18:44.037Z,68.10
2017-12-02T04:19:44.049Z,66.80
2017-12-02T04:20:44.062Z,66.30
2017-12-02T04:21:44.077Z,71.70
2017-12-02T04:22:44.096Z,70.30
2017-12-02T04:23:44.105Z,71.70
2017-12-02T04:24:44.118Z,68.40
2017-12-02T04:25:44.131Z,77.50
2017-12-02T04:26:44.144Z,76.60
2017-12-02T04:27:44.156Z,71.10
2017-12-02T04:28:44.170Z,79.40
2017-12-02T04:29:44.183Z,79.00
2017-12-02T04:30:44.196Z,74.00
2017-12-02T04:31:44.208Z,77.10
2017-12-02T04:32:44.221Z,66.90
2017-12-02T04:33:44.240Z,75.30
2017-12-02T04:34:44.253Z,77.00
2017-12-02T04:35:44.267Z,74.00
2017-12-02T04:36:44.277Z,78.80
2017-12-02T04:37:44.296Z,72.90
2017-12-02T04:38:44.309Z,72.60
2017-12-02T04:39:44.320Z,78.00
2017-12-02T04:40:44.332Z,80.00
2017-12-02T04:41:44.347Z,83.60
2017-12-02T04:42:44.360Z,79.30
2017-12-02T04:43:44.374Z,85.80
2017-12-02T04:44:44.385Z,83.10
2017-12-02T04:45:44.399Z,78.30
2017-12-02T04:46:44.415Z,74.20
2017-12-02T04:47:44.430Z,75.70
2017-12-02T04:48:44.440Z,86.20
2017-12-02T04:49:44.454Z,79.90
2017-12-02T04:50:44.470Z,81.90
2017-12-02T04:51:44.483Z,80.80
2017-12-02T04:52:44.494Z,85.30
2017-12-02T04:53:44.508Z,94.80
2017-12-02T04:54:44.523Z,83.30
2017-12-02T04:55:44.535Z,87.80
2017-12-02T04:56:44.555Z,96.50
2017-12-02T04:57:44.562Z,91.10
2017-12-02T04:58:44.576Z,80.40
2017-12-02T04:59:44.587Z,82.90
2017-12-02T05:00:44.605Z,84.00
2017-12-02T05:01:44.617Z,80.20
2017-12-02T05:02:44.631Z,67.60
2017-12-02T05:03:44.643Z,70.00
2017-12-02T05:04:44.655Z,71.10
2017-12-02T05:05:44.670Z,73.70
2017-12-02T05:06:44.685Z,80.40
2017-12-02T05:07:44.695Z,70.50
2017-12-02T05:08:44.709Z,79.00
2017-12-02T05:09:44.723Z,76.90
2017-12-02T05:10:44.736Z,71.10
2017-12-02T05:11:44.779Z,64.50
2017-12-02T05:12:44.763Z,62.40
2017-12-02T05:13:44.778Z,61.10
2017-12-02T05:14:44.792Z,64.90
2017-12-02T05:15:44.804Z,68.40
2017-12-02T05:16:44.820Z,76.20
2017-12-02T05:17:44.836Z,69.50
2017-12-02T05:18:44.849Z,66.00
2017-12-02T05:19:44.855Z,62.80
2017-12-02T05:20:44.870Z,62.40
2017-12-02T05:21:44.889Z,57.00
2017-12-02T05:22:44.894Z,57.60
2017-12-02T05:23:44.950Z,58.20
2017-12-02T05:24:44.935Z,58.80
2017-12-02T05:25:44.937Z,58.00
2017-12-02T05:26:44.951Z,51.30
2017-12-02T05:27:44.963Z,53.70
2017-12-02T05:28:44.976Z,52.90
2017-12-02T05:29:44.991Z,47.00
2017-12-02T05:30:45.003Z,50.40
2017-12-02T05:31:45.016Z,46.70
2017-12-02T05:32:45.033Z,47.00
2017-12-02T05:33:45.044Z,48.00
2017-12-02T05:34:45.059Z,44.70
2017-12-02T05:35:45.072Z,47.20
2017-12-02T05:36:45.084Z,44.70
2017-12-02T05:37:45.096Z,42.30
2017-12-02T05:38:45.111Z,43.40
2017-12-02T05:39:45.122Z,44.30
2017-12-02T05:40:45.138Z,45.80
2017-12-02T05:41:45.170Z,45.00
2017-12-02T05:42:45.163Z,49.20
2017-12-02T05:43:45.176Z,51.00
2017-12-02T05:44:45.193Z,52.70
2017-12-02T05:45:45.214Z,54.80
2017-12-02T05:46:45.219Z,53.60
2017-12-02T05:47:45.236Z,52.50
2017-12-02T05:48:45.245Z,47.30
2017-12-02T05:49:45.258Z,48.70
2017-12-02T05:50:45.270Z,51.70
2017-12-02T05:51:45.285Z,48.90
2017-12-02T05:52:45.296Z,54.80
2017-12-02T05:53:45.311Z,51.50
2017-12-02T05:54:45.326Z,55.00
2017-12-02T05:55:45.337Z,52.30
2017-12-02T05:56:45.349Z,55.70
2017-12-02T05:57:45.366Z,58.10
2017-12-02T05:58:45.378Z,56.20
2017-12-02T05:59:45.389Z,59.90
2017-12-02T06:00:45.418Z,59.50
2017-12-02T06:01:45.416Z,55.90
2017-12-02T06:02:45.428Z,59.40
2017-12-02T06:03:45.442Z,62.40
2017-12-02T06:04:45.460Z,64.80
2017-12-02T06:05:45.467Z,64.40
2017-12-02T06:06:45.482Z,60.20
2017-12-02T06:07:45.495Z,58.80
2017-12-02T06:08:45.524Z,58.50
2017-12-02T06:09:45.523Z,58.50
2017-12-02T06:10:45.577Z,61.60
2017-12-02T06:11:45.551Z,57.70
2017-12-02T06:12:45.558Z,61.80
2017-12-02T06:13:45.572Z,62.00
2017-12-02T06:14:45.588Z,62.10
2017-12-02T06:15:45.604Z,62.30
2017-12-02T06:16:45.611Z,64.80
2017-12-02T06:17:45.624Z,61.10
2017-12-02T06:18:45.643Z,63.00
2017-12-02T06:19:45.659Z,59.90
2017-12-02T06:20:45.664Z,56.90
2017-12-02T06:21:45.680Z,55.20
2017-12-02T06:22:45.691Z,52.90
2017-12-02T06:23:45.704Z,52.00
2017-12-02T06:24:45.716Z,47.40
2017-12-02T06:25:45.733Z,49.40
2017-12-02T06:26:45.757Z,51.90
2017-12-02T06:27:45.756Z,47.40
2017-12-02T06:28:45.767Z,40.50
2017-12-02T06:29:45.780Z,47.90
2017-12-02T06:30:45.796Z,47.50
2017-12-02T06:31:45.806Z,48.00
2017-12-02T06:32:45.829Z,45.90
2017-12-02T06:33:45.843Z,46.60
2017-12-02T06:34:45.845Z,53.90
2017-12-02T06:35:45.855Z,48.20
2017-12-02T06:36:45.870Z,47.60
2017-12-02T06:37:46.039Z,45.40
2017-12-02T06:38:45.894Z,48.40
2017-12-02T06:39:45.909Z,45.30
2017-12-02T06:40:45.920Z,50.60
2017-12-02T06:41:45.935Z,44.40
2017-12-02T06:42:45.947Z,46.60
2017-12-02T06:43:45.959Z,46.30
2017-12-02T06:44:45.974Z,49.70
2017-12-02T06:45:45.991Z,43.30
2017-12-02T06:46:45.997Z,41.60
2017-12-02T06:47:46.009Z,45.10
2017-12-02T06:48:46.023Z,42.00
2017-12-02T06:49:46.038Z,45.00
2017-12-02T06:50:46.050Z,36.20
2017-12-02T06:51:46.060Z,43.30
2017-12-02T06:52:46.078Z,39.10
2017-12-02T06:53:46.087Z,42.00
2017-12-02T06:54:46.101Z,41.70
2017-12-02T06:55:46.116Z,44.00
2017-12-02T06:56:46.126Z,51.60
2017-12-02T06:57:46.138Z,51.60
2017-12-02T06:58:46.150Z,50.10
2017-12-02T06:59:46.169Z,46.30
2017-12-02T07:00:46.176Z,45.90
2017-12-02T07:01:46.190Z,47.30
2017-12-02T07:02:46.205Z,43.20
2017-12-02T07:03:46.216Z,44.40
2017-12-02T07:04:46.229Z,46.00
2017-12-02T07:05:46.240Z,45.80
2017-12-02T07:06:46.250Z,45.30
2017-12-02T07:07:46.264Z,43.30
2017-12-02T07:08:46.278Z,42.20
2017-12-02T07:09:46.293Z,46.10
2017-12-02T07:10:46.304Z,44.40
2017-12-02T07:11:46.314Z,43.00
2017-12-02T07:12:46.328Z,44.30
2017-12-02T07:13:46.341Z,48.00
2017-12-02T07:14:46.354Z,55.10
2017-12-02T07:15:46.368Z,55.10
2017-12-02T07:16:46.380Z,55.40
2017-12-02T07:17:46.394Z,44.40
2017-12-02T07:18:46.407Z,46.20
2017-12-02T07:19:46.419Z,43.30
2017-12-02T07:20:46.432Z,45.10
2017-12-02T07:21:46.444Z,48.20
2017-12-02T07:22:46.458Z,43.70
2017-12-02T07:23:46.473Z,49.90
2017-12-02T07:24:46.485Z,42.90
2017-12-02T07:25:46.496Z,41.60
2017-12-02T07:26:46.510Z,40.60
2017-12-02T07:27:46.522Z,39.90
2017-12-02T07:28:46.564Z,42.20
2017-12-02T07:29:46.555Z,47.50
2017-12-02T07:30:46.562Z,41.30
2017-12-02T07:31:46.575Z,35.30
2017-12-02T07:32:46.591Z,35.30
2017-12-02T07:33:46.601Z,35.10
2017-12-02T07:34:46.614Z,37.90
2017-12-02T07:35:46.630Z,47.60
2017-12-02T07:36:46.642Z,35.90
2017-12-02T07:37:46.671Z,50.20
2017-12-02T07:38:46.670Z,47.70
2017-12-02T07:39:46.683Z,47.50
2017-12-02T07:40:46.698Z,46.90
2017-12-02T07:41:46.706Z,41.20
2017-12-02T07:42:46.722Z,52.90
2017-12-02T07:43:46.732Z,52.60
2017-12-02T07:44:46.747Z,48.30
2017-12-02T07:45:46.757Z,40.90
2017-12-02T07:46:46.770Z,45.10
2017-12-02T07:47:46.783Z,43.20
2017-12-02T07:48:46.798Z,46.40
2017-12-02T07:49:46.810Z,49.70
2017-12-02T07:50:46.825Z,51.00
2017-12-02T07:51:46.844Z,58.10
2017-12-02T07:52:46.850Z,102.10
2017-12-02T07:53:46.864Z,94.90
2017-12-02T07:54:46.881Z,62.90
2017-12-02T07:55:46.891Z,81.50
2017-12-02T07:56:46.905Z,86.00
2017-12-02T07:57:46.918Z,67.30
2017-12-02T07:58:46.931Z,55.20
2017-12-02T07:59:46.945Z,47.80
2017-12-02T08:00:46.974Z,47.80
2017-12-02T08:01:46.988Z,50.80
2017-12-02T08:02:46.985Z,50.70
2017-12-02T08:03:46.996Z,56.00
2017-12-02T08:04:47.019Z,40.70
2017-12-02T08:05:47.023Z,44.30
2017-12-02T08:06:47.038Z,37.90
2017-12-02T08:07:47.055Z,35.20
2017-12-02T08:08:47.063Z,40.10
2017-12-02T08:09:47.076Z,43.40
2017-12-02T08:10:47.090Z,42.20
2017-12-02T08:11:47.147Z,37.20
2017-12-02T08:12:47.127Z,36.80
2017-12-02T08:13:47.132Z,32.10
2017-12-02T08:14:47.294Z,38.60
2017-12-02T08:15:47.158Z,34.30
2017-12-02T08:16:47.170Z,34.20
2017-12-02T08:17:47.183Z,31.70
2017-12-02T08:18:47.197Z,35.20
2017-12-02T08:19:47.208Z,36.30
2017-12-02T08:20:47.223Z,38.30
2017-12-02T08:21:47.236Z,35.40
2017-12-02T08:22:47.252Z,37.50
2017-12-02T08:23:47.263Z,38.40
2017-12-02T08:24:47.275Z,32.50
2017-12-02T08:25:47.297Z,34.60
2017-12-02T08:26:47.304Z,36.80
2017-12-02T08:27:47.315Z,35.80
2017-12-02T08:28:47.334Z,35.20
2017-12-02T08:29:47.350Z,33.20
2017-12-02T08:30:47.360Z,35.90
2017-12-02T08:31:47.377Z,37.00
2017-12-02T08:32:47.385Z,35.50
2017-12-02T08:33:47.399Z,34.20
2017-12-02T08:34:47.412Z,36.20
2017-12-02T08:35:47.424Z,36.50
2017-12-02T08:36:47.437Z,37.00
2017-12-02T08:37:47.451Z,38.80
2017-12-02T08:38:47.468Z,36.50
2017-12-02T08:39:47.485Z,43.00
2017-12-02T08:40:47.490Z,35.50
2017-12-02T08:41:47.505Z,36.80
2017-12-02T08:42:47.527Z,35.70
2017-12-02T08:43:47.532Z,37.10
2017-12-02T08:44:47.616Z,37.40
2017-12-02T08:45:47.568Z,35.80
2017-12-02T08:46:47.587Z,35.50
2017-12-02T08:47:47.588Z,77.40
2017-12-02T08:48:47.604Z,134.40
2017-12-02T08:49:47.614Z,81.60
2017-12-02T08:50:47.634Z,50.70
2017-12-02T08:51:47.640Z,41.50
2017-12-02T08:52:47.654Z,33.70
2017-12-02T08:53:47.666Z,35.50
2017-12-02T08:54:47.680Z,33.70
2017-12-02T08:55:47.693Z,39.30
2017-12-02T08:56:47.713Z,35.30
2017-12-02T08:57:47.726Z,64.30
2017-12-02T08:58:47.742Z,80.70
2017-12-02T08:59:47.748Z,103.90
2017-12-02T09:00:47.766Z,123.80
2017-12-02T09:01:47.774Z,84.70
2017-12-02T09:02:47.796Z,52.60
2017-12-02T09:03:47.804Z,40.50
2017-12-02T09:04:47.818Z,37.40
2017-12-02T09:05:47.864Z,35.90
2017-12-02T09:06:47.845Z,35.60
2017-12-02T09:07:47.857Z,30.40
2017-12-02T09:08:47.872Z,27.80
2017-12-02T09:09:47.886Z,29.90
2017-12-02T09:10:47.900Z,32.70
2017-12-02T09:11:47.918Z,35.20
2017-12-02T09:12:47.928Z,34.50
2017-12-02T09:13:47.943Z,32.20
2017-12-02T09:14:47.969Z,32.30
2017-12-02T09:15:47.968Z,36.60
2017-12-02T09:16:48.041Z,33.60
2017-12-02T09:17:47.996Z,32.30
2017-12-02T09:18:48.012Z,32.90
2017-12-02T09:19:48.033Z,31.70
2017-12-02T09:20:48.038Z,29.60
2017-12-02T09:21:48.054Z,24.80
2017-12-02T09:22:48.066Z,23.30
2017-12-02T09:23:48.078Z,25.90
2017-12-02T09:24:48.096Z,27.20
2017-12-02T09:25:48.110Z,24.90
2017-12-02T09:26:48.120Z,24.30
2017-12-02T09:27:48.131Z,23.30
2017-12-02T09:28:48.152Z,25.30
2017-12-02T09:29:48.161Z,27.00
2017-12-02T09:30:48.173Z,23.90
2017-12-02T09:31:48.189Z,24.50
2017-12-02T09:32:48.203Z,24.40
2017-12-02T09:33:48.239Z,24.40
2017-12-02T09:34:48.230Z,26.60
2017-12-02T09:35:48.249Z,23.80
2017-12-02T09:36:48.257Z,25.30
2017-12-02T09:37:48.475Z,27.90
2017-12-02T09:38:48.284Z,43.30
2017-12-02T09:39:48.299Z,67.40
2017-12-02T09:40:48.315Z,48.90
2017-12-02T09:41:48.333Z,30.10
2017-12-02T09:42:48.343Z,33.00
2017-12-02T09:43:48.361Z,27.40
2017-12-02T09:44:48.370Z,28.10
2017-12-02T09:45:48.381Z,27.30
2017-12-02T09:46:48.395Z,32.80
2017-12-02T09:47:48.409Z,28.90
2017-12-02T09:48:48.421Z,29.40
2017-12-02T09:49:48.475Z,28.30
2017-12-02T09:50:48.456Z,32.00
2017-12-02T09:51:48.466Z,32.10
2017-12-02T09:52:48.480Z,30.20
2017-12-02T09:53:48.493Z,31.80
2017-12-02T09:54:48.507Z,29.60
2017-12-02T09:55:48.545Z,31.30
2017-12-02T09:56:48.530Z,29.00
2017-12-02T09:57:48.548Z,27.40
2017-12-02T09:58:48.576Z,23.90
2017-12-02T09:59:48.580Z,26.70
2017-12-02T10:00:48.590Z,24.80
2017-12-02T10:01:48.608Z,27.90
2017-12-02T10:02:48.617Z,23.90
2017-12-02T10:03:48.631Z,25.70
2017-12-02T10:04:48.644Z,24.00
2017-12-02T10:05:48.660Z,24.80
2017-12-02T10:06:48.678Z,27.30
2017-12-02T10:07:48.684Z,25.40
2017-12-02T10:08:48.699Z,25.30
2017-12-02T10:09:48.714Z,25.00
2017-12-02T10:10:48.730Z,23.70
2017-12-02T10:11:48.742Z,24.70
2017-12-02T10:12:48.754Z,27.10
2017-12-02T10:13:48.769Z,23.60
2017-12-02T10:14:48.953Z,24.30
2017-12-02T10:15:48.804Z,22.00
2017-12-02T10:16:48.812Z,23.50
2017-12-02T10:17:48.826Z,22.30
2017-12-02T10:18:48.992Z,21.60
2017-12-02T10:19:48.854Z,21.80
2017-12-02T10:20:48.866Z,22.00
2017-12-02T10:21:48.882Z,23.10
2017-12-02T10:22:48.897Z,19.50
2017-12-02T10:23:48.907Z,19.70
2017-12-02T10:24:48.921Z,20.20
2017-12-02T10:25:48.936Z,18.60
2017-12-02T10:26:48.952Z,19.00
2017-12-02T10:27:48.962Z,19.40
2017-12-02T10:28:49.022Z,21.60
2017-12-02T10:29:48.993Z,21.30
2017-12-02T10:30:49.007Z,23.70
2017-12-02T10:31:49.022Z,20.20
2017-12-02T10:32:49.042Z,22.40
2017-12-02T10:33:49.053Z,22.60
2017-12-02T10:34:49.065Z,19.10
2017-12-02T10:35:49.079Z,19.20
2017-12-02T10:36:49.093Z,18.60
2017-12-02T10:37:49.106Z,22.80
2017-12-02T10:38:49.122Z,18.20
2017-12-02T10:39:49.136Z,20.60
2017-12-02T10:40:49.153Z,22.00
2017-12-02T10:41:49.174Z,23.30
2017-12-02T10:42:49.178Z,19.90
2017-12-02T10:43:49.194Z,23.30
2017-12-02T10:44:49.204Z,23.50
2017-12-02T10:45:49.221Z,24.50
2017-12-02T10:46:49.234Z,21.90
2017-12-02T10:47:49.247Z,21.90
2017-12-02T10:48:49.260Z,26.00
2017-12-02T10:49:49.276Z,24.00
2017-12-02T10:50:49.294Z,20.10
2017-12-02T10:51:49.310Z,21.50
2017-12-02T10:52:49.322Z,23.70
2017-12-02T10:53:49.332Z,22.90
2017-12-02T10:54:49.351Z,23.30
2017-12-02T10:55:49.494Z,24.10
2017-12-02T10:56:49.375Z,35.00
2017-12-02T10:57:49.393Z,37.70
2017-12-02T10:58:49.404Z,26.10
2017-12-02T10:59:49.419Z,33.70
2017-12-02T11:00:49.433Z,49.80
2017-12-02T11:01:49.449Z,35.30
2017-12-02T11:02:49.460Z,19.40
2017-12-02T11:03:49.475Z,18.70
2017-12-02T11:04:49.492Z,17.90
2017-12-02T11:05:49.563Z,19.50
2017-12-02T11:06:49.523Z,18.40
2017-12-02T11:07:49.531Z,17.00
2017-12-02T11:08:49.548Z,18.50
2017-12-02T11:09:49.562Z,16.80
2017-12-02T11:10:49.579Z,19.50
2017-12-02T11:11:49.594Z,20.70
2017-12-02T11:12:49.608Z,22.50
2017-12-02T11:13:49.638Z,25.00
2017-12-02T11:14:49.634Z,24.50
2017-12-02T11:15:49.650Z,23.00
2017-12-02T11:16:49.664Z,23.20
2017-12-02T11:17:49.679Z,26.30
2017-12-02T11:18:49.693Z,29.10
2017-12-02T11:19:49.708Z,29.50
2017-12-02T11:20:49.760Z,29.30
2017-12-02T11:21:49.743Z,26.10
2017-12-02T11:22:49.764Z,30.60
2017-12-02T11:23:49.763Z,25.10
2017-12-02T11:24:49.781Z,31.40
2017-12-02T11:25:49.793Z,497.00
2017-12-02T11:26:49.813Z,161.40
2017-12-02T11:27:49.822Z,78.90
2017-12-02T11:28:49.837Z,56.70
2017-12-02T11:29:49.858Z,49.50
2017-12-02T11:30:49.867Z,45.60
2017-12-02T11:31:49.881Z,42.00
2017-12-02T11:32:49.894Z,37.60
2017-12-02T11:33:49.909Z,49.20
2017-12-02T11:34:49.925Z,70.00
2017-12-02T11:35:49.939Z,62.60
2017-12-02T11:36:49.955Z,46.90
2017-12-02T11:37:49.969Z,35.70
2017-12-02T11:38:49.982Z,33.40
2017-12-02T11:39:49.998Z,32.70
2017-12-02T11:40:50.012Z,33.00
2017-12-02T11:41:50.026Z,37.70
2017-12-02T11:42:50.039Z,30.30
2017-12-02T11:43:50.055Z,33.70
2017-12-02T11:44:50.129Z,29.70
2017-12-02T11:45:50.085Z,30.60
2017-12-02T11:46:50.104Z,29.50
2017-12-02T11:47:50.113Z,30.90
2017-12-02T11:48:50.125Z,28.10
2017-12-02T11:49:50.149Z,27.30
2017-12-02T11:50:50.159Z,26.30
2017-12-02T11:51:50.170Z,26.30
2017-12-02T11:52:50.183Z,25.80
2017-12-02T11:53:50.198Z,25.30
2017-12-02T11:54:50.213Z,28.00
2017-12-02T11:55:50.232Z,26.00
2017-12-02T11:56:50.257Z,25.60
2017-12-02T11:57:50.265Z,29.50
2017-12-02T11:58:50.272Z,29.10
2017-12-02T11:59:50.287Z,27.30
2017-12-02T12:00:50.301Z,31.20
2017-12-02T12:01:50.344Z,27.40
2017-12-02T12:02:50.332Z,26.60
2017-12-02T12:03:50.344Z,25.70
2017-12-02T12:04:50.364Z,26.50
2017-12-02T12:05:50.372Z,28.30
2017-12-02T12:06:50.389Z,27.30
2017-12-02T12:07:50.402Z,27.60
2017-12-02T12:08:50.416Z,27.50
2017-12-02T12:09:50.440Z,28.60
2017-12-02T12:10:50.450Z,30.00
2017-12-02T12:11:50.459Z,28.20
2017-12-02T12:12:50.473Z,29.00
2017-12-02T12:13:50.488Z,31.10
2017-12-02T12:14:50.507Z,27.40
2017-12-02T12:15:50.518Z,27.50
2017-12-02T12:16:50.532Z,29.40
2017-12-02T12:17:50.555Z,26.10
2017-12-02T12:18:50.564Z,26.60
2017-12-02T12:19:50.578Z,24.80
2017-12-02T12:20:50.593Z,27.30
2017-12-02T12:21:50.605Z,29.10
2017-12-02T12:22:50.622Z,28.00
2017-12-02T12:23:50.637Z,28.40
2017-12-02T12:24:50.650Z,28.50
2017-12-02T12:25:50.790Z,26.70
2017-12-02T12:26:50.679Z,27.60
2017-12-02T12:27:50.695Z,37.30
2017-12-02T12:28:50.713Z,32.30
2017-12-02T12:29:50.723Z,27.90
2017-12-02T12:30:50.741Z,28.90
2017-12-02T12:31:50.753Z,38.90
2017-12-02T12:32:50.770Z,49.90
2017-12-02T12:33:50.782Z,90.40
2017-12-02T12:34:50.797Z,61.40
2017-12-02T12:35:50.812Z,30.40
2017-12-02T12:36:50.827Z,33.20
2017-12-02T12:37:50.841Z,32.00
2017-12-02T12:38:50.856Z,30.70
2017-12-02T12:39:50.881Z,27.50
2017-12-02T12:40:50.886Z,29.40
2017-12-02T12:41:50.900Z,30.00
2017-12-02T12:42:50.915Z,28.20
2017-12-02T12:43:50.931Z,28.20
2017-12-02T12:44:50.946Z,31.70
2017-12-02T12:45:50.961Z,31.00
2017-12-02T12:46:50.974Z,28.50
2017-12-02T12:47:50.992Z,26.80
2017-12-02T12:48:51.003Z,29.80
2017-12-02T12:49:51.016Z,37.50